»·PEaware :: N5832H KVCV-KVNY

N5832H :: KVCV-KVNY

FLIGHT INFORMATION

Flight Status: Arrived
Operator: Privately registered:
United States
More flights under this callsign
Pilot: Fernando A. (32251)
Aircraft: CESSNA 172 SKYHAWK
(C172)
More flights by this aircraft type
Origin: KVCV Socal Logistics
United States
Destination: KVNY Van Nuys
United States
More flights between these airports :: More routes between these airports
Route:
File this flight plan on PilotEdge
Remarks:
Altitude:
(Current/Filed)
4,500ft
Speed:
(Current/Filed)
110kts
Departed: 08-Nov-20 01:25 PM
Arrived: 08-Nov-20 02:04 PM
Distance/Time
Traveled:
60nm/0:39
Distance/Time
To Go:
Arrived

Flight Plot

Page will automatically refresh every two minutes.

Flight plan parsing failed; only flown route is shown


Map Options




Map Legend


Flown Route
Filed Route
Departure Airport
Arrival Airport
Navaid (VOR, NDB)
Fix

Horizontal Profiles

Position Reports

Time Latitude Longitude Heading Altitude Ground
Speed
08-Nov-20 13:13 34.588646 -117.374542 43 2867ft 0kts
08-Nov-20 13:14 34.588646 -117.374542 43 2867ft 0kts
08-Nov-20 13:15 34.588646 -117.374542 43 2867ft 0kts
08-Nov-20 13:16 34.588646 -117.374542 43 2867ft 0kts
08-Nov-20 13:17 34.588646 -117.374542 43 2867ft 0kts
08-Nov-20 13:18 34.588646 -117.374542 43 2867ft 0kts
08-Nov-20 13:19 34.589569 -117.375261 311 2866ft 10kts
08-Nov-20 13:20 34.592310 -117.373471 44 2862ft 19kts
08-Nov-20 13:21 34.593274 -117.368425 87 2857ft 14kts
08-Nov-20 13:22 34.597418 -117.367024 10 2851ft 19kts
08-Nov-20 13:23 34.599097 -117.366626 4 2849ft 5kts
08-Nov-20 13:24 34.593276 -117.375234 224 2947ft 75kts
08-Nov-20 13:25 34.578053 -117.394765 229 3563ft 83kts
08-Nov-20 13:26 34.572651 -117.423912 260 4157ft 95kts
08-Nov-20 13:27 34.563399 -117.456132 243 4483ft 110kts
08-Nov-20 13:28 34.549647 -117.490373 243 4501ft 114kts
08-Nov-20 13:29 34.535639 -117.525279 243 4501ft 115kts
08-Nov-20 13:30 34.521609 -117.560262 243 4497ft 115kts
08-Nov-20 13:31 34.507730 -117.594881 243 4499ft 113kts
08-Nov-20 13:32 34.493932 -117.629352 243 4500ft 113kts
08-Nov-20 13:33 34.480367 -117.663717 251 4623ft 108kts
08-Nov-20 13:34 34.477550 -117.696600 274 5305ft 90kts
08-Nov-20 13:35 34.480684 -117.725935 276 5897ft 89kts
08-Nov-20 13:36 34.484274 -117.756714 274 6398ft 95kts
08-Nov-20 13:37 34.484404 -117.793311 269 6496ft 118kts
08-Nov-20 13:38 34.485034 -117.832177 270 6494ft 112kts
08-Nov-20 13:39 34.486380 -117.869928 272 6500ft 112kts
08-Nov-20 13:40 34.489200 -117.907684 274 6501ft 112kts
08-Nov-20 13:41 34.492424 -117.945368 274 6500ft 112kts
08-Nov-20 13:42 34.499516 -117.982248 284 6497ft 112kts
08-Nov-20 13:43 34.507706 -118.018862 284 6500ft 112kts
08-Nov-20 13:44 34.515835 -118.055333 283 6499ft 112kts
08-Nov-20 13:45 34.513200 -118.092583 260 6500ft 111kts
08-Nov-20 13:46 34.508538 -118.129813 260 6504ft 111kts
08-Nov-20 13:47 34.505328 -118.167620 266 6502ft 113kts
08-Nov-20 13:48 34.504050 -118.205561 266 6498ft 113kts
08-Nov-20 13:49 34.497601 -118.242479 251 6496ft 111kts
08-Nov-20 13:50 34.485479 -118.277008 243 6503ft 112kts
08-Nov-20 13:51 34.471456 -118.311775 243 6496ft 114kts
08-Nov-20 13:52 34.456329 -118.347306 239 6047ft 121kts
08-Nov-20 13:53 34.438916 -118.382251 237 5372ft 120kts
08-Nov-20 13:54 34.420979 -118.416917 237 4678ft 122kts
08-Nov-20 13:55 34.403760 -118.449954 236 4506ft 112kts
08-Nov-20 13:56 34.386278 -118.481287 231 4396ft 112kts
08-Nov-20 13:57 34.359112 -118.497433 181 3965ft 117kts
08-Nov-20 13:58 34.327034 -118.499986 180 3333ft 116kts
08-Nov-20 13:59 34.296066 -118.498251 176 2762ft 108kts
08-Nov-20 14:00 34.267905 -118.495922 175 2145ft 98kts
08-Nov-20 14:01 34.242493 -118.493393 176 1526ft 79kts
08-Nov-20 14:02 34.220266 -118.491347 177 936ft 81kts
08-Nov-20 14:03 34.210143 -118.491314 267 786ft 3kts
08-Nov-20 14:04 34.210142 -118.491330 266 786ft 0kts
08-Nov-20 14:05 34.212928 -118.491848 355 791ft 13kts
08-Nov-20 14:06 34.216877 -118.492271 356 799ft 10kts
08-Nov-20 14:07 34.217726 -118.494477 269 803ft 0kts

Navigation Log

Ident Type
Flight plan parsing failed, navigation log unavailable